Gas Hills, Wyoming
Current Conditions -  °F | °C
As of 5:53 PM on Wednesday 22 Oct 2014 (Local Time) from KLND Reporting Station
Clear Clear  
Wind Chill: 56°   Ceiling: Unl
Heat Index: 56°   Visibility: 10mi
Dew Point: 19°   Wind: 0mph
Humidity: 24%   Direction: NA
Pressure: 30.05"   Gusts: NA
Location:  43.1005°N, 108.934°W
Report Text: KLND 222353Z AUTO 00000KT 10SM CLR 13/M07 A3005 RMK AO2 SLP159 T01331072 10150 20111 56002 TSNO
Loading
Personal Weather Stations






























Interactive Weather Map
Tropical Storm Tracking
New forecast layout! Learn more

10-Day Weather Forecast

Advertisements
Track Severe Weather on mobile